Map

Track Data

SID SEASON NUMBER BASIN SUBBASIN NAME ISO_TIME NATURE LAT LON WMO_WIND WMO_PRES WMO_AGENCY TRACK_TYPE DIST2LAND LANDFALL IFLAG USA_AGENCY USA_ATCF_ID USA_LAT USA_LON USA_RECORD USA_STATUS USA_WIND USA_PRES USA_SSHS USA_R34_NE USA_R34_SE USA_R34_SW USA_R34_NW USA_R50_NE USA_R50_SE USA_R50_SW USA_R50_NW USA_R64_NE USA_R64_SE USA_R64_SW USA_R64_NW USA_POCI USA_ROCI USA_RMW USA_EYE TOKYO_LAT TOKYO_LON TOKYO_GRADE TOKYO_WIND TOKYO_PRES TOKYO_R50_DIR TOKYO_R50_LONG TOKYO_R50_SHORT TOKYO_R30_DIR TOKYO_R30_LONG TOKYO_R30_SHORT TOKYO_LAND CMA_LAT CMA_LON CMA_CAT CMA_WIND CMA_PRES HKO_LAT HKO_LON HKO_CAT HKO_WIND HKO_PRES NEWDELHI_LAT NEWDELHI_LON NEWDELHI_GRADE NEWDELHI_WIND NEWDELHI_PRES NEWDELHI_CI NEWDELHI_DP NEWDELHI_POCI REUNION_LAT REUNION_LON REUNION_TYPE REUNION_WIND REUNION_PRES REUNION_TNUM REUNION_CI REUNION_RMW REUNION_R34_NE REUNION_R34_SE REUNION_R34_SW REUNION_R34_NW REUNION_R50_NE REUNION_R50_SE REUNION_R50_SW REUNION_R50_NW REUNION_R64_NE REUNION_R64_SE REUNION_R64_SW REUNION_R64_NW BOM_LAT BOM_LON BOM_TYPE BOM_WIND BOM_PRES BOM_TNUM BOM_CI BOM_RMW BOM_R34_NE BOM_R34_SE BOM_R34_SW BOM_R34_NW BOM_R50_NE BOM_R50_SE BOM_R50_SW BOM_R50_NW BOM_R64_NE BOM_R64_SE BOM_R64_SW BOM_R64_NW BOM_ROCI BOM_POCI BOM_EYE BOM_POS_METHOD BOM_PRES_METHOD NADI_LAT NADI_LON NADI_CAT NADI_WIND NADI_PRES WELLINGTON_LAT WELLINGTON_LON WELLINGTON_WIND WELLINGTON_PRES DS824_LAT DS824_LON DS824_STAGE DS824_WIND DS824_PRES TD9636_LAT TD9636_LON TD9636_STAGE TD9636_WIND TD9636_PRES TD9635_LAT TD9635_LON TD9635_WIND TD9635_PRES TD9635_ROCI NEUMANN_LAT NEUMANN_LON NEUMANN_CLASS NEUMANN_WIND NEUMANN_PRES MLC_LAT MLC_LON MLC_CLASS MLC_WIND MLC_PRES USA_GUST BOM_GUST BOM_GUST_PER REUNION_GUST REUNION_GUST_PER USA_SEAHGT USA_SEARAD_NE USA_SEARAD_SE USA_SEARAD_SW USA_SEARAD_NW STORM_SPEED STORM_DIR
1947199N18117 1947 47 WP MM NOT_NAMED 1947-07-17 12:00:00 NR 17.6000 117.100 main 321 321 __________O___ -1 17.6000 117.100 1 30 16 305
1947199N18117 1947 47 WP MM NOT_NAMED 1947-07-17 15:00:00 NR 18.0431 116.430 main 408 408 __________P___ -1 18.0431 116.430 1 30 15 305
1947199N18117 1947 47 WP MM NOT_NAMED 1947-07-17 18:00:00 NR 18.4679 115.787 main 452 402 __________P___ -1 18.4679 115.787 1 30 14 305
1947199N18117 1947 47 WP MM NOT_NAMED 1947-07-17 21:00:00 NR 18.8586 115.200 main 391 349 __________P___ -1 18.8586 115.200 1 30 13 305
1947199N18117 1947 47 WP MM NOT_NAMED 1947-07-18 00:00:00 NR 19.2000 114.700 main 349 300 __________O___ -1 19.2000 114.700 1 30 11 307
1947199N18117 1947 47 WP MM NOT_NAMED 1947-07-18 03:00:00 NR 19.4837 114.306 main 300 267 __________P___ -1 19.4837 114.306 1 31 9 308
1947199N18117 1947 47 WP MM NOT_NAMED 1947-07-18 06:00:00 NR 19.7283 113.988 main 267 235 __________P___ -1 19.7283 113.988 1 32 7 310
1947199N18117 1947 47 WP MM NOT_NAMED 1947-07-18 09:00:00 NR 19.9589 113.700 main 224 194 __________P___ -1 19.9589 113.700 1 33 7 310
1947199N18117 1947 47 WP MM NOT_NAMED 1947-07-18 12:00:00 NR 20.2000 113.400 main 194 154 __________O___ -1 20.2000 113.400 2 35 8 311
1947199N18117 1947 47 WP MM NOT_NAMED 1947-07-18 15:00:00 NR 20.5097 113.034 main 151 108 __________P___ -1 20.5097 113.034 2 33 9 312
1947199N18117 1947 47 WP MM NOT_NAMED 1947-07-18 18:00:00 NR 20.8296 112.645 main 105 67 __________P___ -1 20.8296 112.645 2 32 10 310
1947199N18117 1947 47 WP MM NOT_NAMED 1947-07-18 21:00:00 NR 21.1346 112.234 main 67 22 __________P___ -1 21.1346 112.234 2 31 10 306
1947199N18117 1947 47 WP MM NOT_NAMED 1947-07-19 00:00:00 NR 21.4000 111.800 main 22 0 __________O___ -1 21.4000 111.800 1 30 10 299
1947199N18117 1947 47 WP MM NOT_NAMED 1947-07-19 03:00:00 NR 21.5891 111.338 main 0 0 __________P___ -1 21.5891 111.338 1 28 9 291
1947199N18117 1947 47 WP MM NOT_NAMED 1947-07-19 06:00:00 NR 21.7376 110.856 main 0 0 __________P___ -1 21.7376 110.856 1 27 9 287
1947199N18117 1947 47 WP MM NOT_NAMED 1947-07-19 09:00:00 NR 21.8672 110.372 main 0 0 __________P___ -1 21.8672 110.372 1 26 9 286
1947199N18117 1947 47 WP MM NOT_NAMED 1947-07-19 12:00:00 NR 22.0000 109.900 main 0 0 __________O___ -1 22.0000 109.900 1 25 9 289
1947199N18117 1947 47 WP MM NOT_NAMED 1947-07-19 15:00:00 NR 22.1533 109.452 main 0 0 __________P___ -1 22.1533 109.452 1 9 292
1947199N18117 1947 47 WP MM NOT_NAMED 1947-07-19 18:00:00 NR 22.3255 109.024 main 0 0 __________P___ -1 22.3255 109.024 1 9 295
1947199N18117 1947 47 WP MM NOT_NAMED 1947-07-19 21:00:00 NR 22.5099 108.609 main 0 0 __________P___ -1 22.5099 108.609 1 8 296
1947199N18117 1947 47 WP MM NOT_NAMED 1947-07-20 00:00:00 NR 22.7000 108.200 main 0 __________O___ -1 22.7000 108.200 7 8 297

Digital Typhoon Data and Search

About IBTrACS Database

This database is a web-friendly format of International Best Track Archive for Climate Stewardship (IBTrACS), a global best track data archive curated by NOAA dating back to 1842.

Updated: 2021-12-01